Time;durP1;ratioP1;P1;durP2;ratioP2;P2;SDS_P1;SDS_P2;PMS_P1;PMS_P2;Temp;Humidity;BMP_temperature;BMP_pressure;BME280_temperature;BME280_humidity;BME280_pressure;Samples;Min_cycle;Max_cycle;Signal;HPM_P1;HPM_P2
2023/04/09 00:01:48;;;;;;;43.10;24.77;;;7.90;99.90;;;;;;5092774;28;20036;-48
2023/04/09 00:04:14;;;;;;;45.37;24.90;;;7.80;99.90;;;;;;5092634;28;20037;-49
2023/04/09 00:06:40;;;;;;;43.07;23.90;;;7.80;99.90;;;;;;5092675;28;20028;-49
2023/04/09 00:09:05;;;;;;;43.07;24.33;;;7.80;99.90;;;;;;5092695;28;20028;-51
2023/04/09 00:11:31;;;;;;;46.90;25.00;;;7.80;99.90;;;;;;5092830;28;20040;-49
2023/04/09 00:13:57;;;;;;;45.67;24.37;;;7.70;99.90;;;;;;5092441;28;20055;-51
2023/04/09 00:16:23;;;;;;;45.67;25.37;;;7.70;99.90;;;;;;5092091;28;20032;-50
2023/04/09 00:18:50;;;;;;;44.30;24.40;;;7.70;99.90;;;;;;5092646;28;20035;-54
2023/04/09 00:21:16;;;;;;;44.90;23.90;;;7.60;99.90;;;;;;5092571;28;20032;-49
2023/04/09 00:23:42;;;;;;;43.63;24.13;;;7.60;99.90;;;;;;5092351;28;20024;-53
2023/04/09 00:26:08;;;;;;;46.77;24.00;;;7.60;99.90;;;;;;5092427;28;20049;-51
2023/04/09 00:28:34;;;;;;;49.07;26.03;;;7.60;99.90;;;;;;5092253;28;20095;-54
2023/04/09 00:31:01;;;;;;;47.17;23.87;;;7.50;99.90;;;;;;5090902;28;20028;-50
2023/04/09 00:33:27;;;;;;;46.00;24.37;;;7.40;99.90;;;;;;5092120;28;20658;-48
2023/04/09 00:35:52;;;;;;;45.67;23.97;;;7.40;99.90;;;;;;5092353;28;20434;-53
2023/04/09 00:38:18;;;;;;;46.37;24.27;;;7.40;99.90;;;;;;5091905;28;20400;-52
2023/04/09 00:40:48;;;;;;;47.87;24.97;;;7.40;99.90;;;;;;5090751;28;20028;-51
2023/04/09 00:43:14;;;;;;;51.27;25.03;;;7.40;99.90;;;;;;5092159;28;20031;-50
2023/04/09 00:45:41;;;;;;;48.00;24.53;;;7.40;99.90;;;;;;5091796;28;20123;-52
2023/04/09 00:48:07;;;;;;;48.80;25.73;;;7.40;99.90;;;;;;5091791;28;20034;-47
2023/04/09 00:50:33;;;;;;;49.67;25.63;;;7.30;99.90;;;;;;5091870;28;20085;-49
2023/04/09 00:52:59;;;;;;;46.87;24.43;;;7.30;99.90;;;;;;5091831;28;20028;-48
2023/04/09 00:55:25;;;;;;;45.30;25.20;;;7.20;99.90;;;;;;5090994;28;20055;-49
2023/04/09 00:57:51;;;;;;;48.20;24.33;;;7.20;99.90;;;;;;5091580;28;20039;-50
2023/04/09 01:00:17;;;;;;;48.07;24.70;;;7.10;99.90;;;;;;5090257;28;20024;-49
2023/04/09 01:02:43;;;;;;;46.17;24.00;;;7.10;99.90;;;;;;5091832;28;20028;-48
2023/04/09 01:05:10;;;;;;;47.07;25.30;;;7.10;99.90;;;;;;5091470;28;20501;-49
2023/04/09 01:08:10;;;;;;;48.50;25.13;;;7.10;99.90;;;;;;5091410;28;20020;-49
2023/04/09 01:11:07;;;;;;;46.97;24.27;;;7.00;99.90;;;;;;5091498;28;20024;-52
2023/04/09 01:13:33;;;;;;;49.33;24.60;;;7.00;99.90;;;;;;5086177;28;20460;-48
2023/04/09 01:16:02;;;;;;;45.33;24.83;;;6.90;99.90;;;;;;5089991;28;20116;-46
2023/04/09 01:18:43;;;;;;;50.50;25.48;;;6.80;99.90;;;;;;5100653;22;20055;-52
2023/04/09 01:21:12;;;;;;;52.03;26.77;;;6.80;99.90;;;;;;5091183;28;20031;-55
2023/04/09 01:24:01;;;;;;;51.50;27.23;;;6.70;99.90;;;;;;5091125;28;20028;-55
2023/04/09 01:26:54;;;;;;;52.40;26.07;;;6.70;99.90;;;;;;5089803;28;20059;-52
2023/04/09 01:29:25;;;;;;;49.77;24.63;;;6.70;99.90;;;;;;5089742;28;20053;-54
2023/04/09 01:31:53;;;;;;;47.93;24.80;;;6.70;99.90;;;;;;5089825;28;20032;-55
2023/04/09 01:34:20;;;;;;;49.77;26.13;;;6.70;99.90;;;;;;5090947;28;20042;-55
2023/04/09 01:36:51;;;;;;;51.13;25.87;;;6.70;99.90;;;;;;5089449;28;20063;-54
2023/04/09 01:39:17;;;;;;;51.83;26.67;;;6.60;99.90;;;;;;5089608;28;20027;-53
2023/04/09 01:41:43;;;;;;;52.47;27.30;;;6.60;99.90;;;;;;5090873;28;20032;-52
2023/04/09 01:44:11;;;;;;;51.53;25.70;;;6.60;99.90;;;;;;5090674;28;20024;-55
2023/04/09 01:46:38;;;;;;;52.23;27.13;;;6.60;99.90;;;;;;5090889;28;20024;-52
2023/04/09 01:49:05;;;;;;;51.63;25.57;;;6.50;99.90;;;;;;5089503;28;20028;-55
2023/04/09 01:51:32;;;;;;;53.60;27.97;;;6.50;99.90;;;;;;5089504;28;20396;-54
2023/04/09 01:53:58;;;;;;;52.37;27.67;;;6.50;99.90;;;;;;5091119;28;20059;-55
2023/04/09 01:56:24;;;;;;;56.60;27.70;;;6.40;99.90;;;;;;5090491;28;20024;-52
2023/04/09 01:58:51;;;;;;;51.30;27.70;;;6.40;99.90;;;;;;5089278;28;20081;-54
2023/04/09 02:01:34;;;;;;;54.73;27.07;;;6.30;99.90;;;;;;5089230;28;20032;-55
2023/04/09 02:04:02;;;;;;;49.17;25.20;;;6.30;99.90;;;;;;5089185;28;20039;-54
2023/04/09 02:06:43;;;;;;;57.72;28.73;;;6.30;99.90;;;;;;5090394;28;20093;-54
2023/04/09 02:09:10;;;;;;;52.87;26.67;;;6.30;99.90;;;;;;5089475;28;20035;-53
2023/04/09 02:11:41;;;;;;;50.63;27.50;;;6.20;99.90;;;;;;5089371;28;20035;-50
2023/04/09 02:14:09;;;;;;;54.10;27.53;;;6.20;99.90;;;;;;5089140;28;20035;-55
2023/04/09 02:16:36;;;;;;;55.03;27.03;;;6.20;99.90;;;;;;5088894;28;20032;-54
2023/04/09 02:19:02;;;;;;;57.87;27.27;;;6.10;99.90;;;;;;5090533;28;20028;-55
2023/04/09 02:21:28;;;;;;;54.97;28.30;;;6.10;99.90;;;;;;5090322;28;20435;-53
2023/04/09 02:23:55;;;;;;;60.93;28.30;;;6.00;99.90;;;;;;5090415;28;20031;-55
2023/04/09 02:26:21;;;;;;;51.63;27.30;;;6.00;99.90;;;;;;5090159;28;20036;-55
2023/04/09 02:28:47;;;;;;;55.30;28.53;;;5.90;99.90;;;;;;5090446;28;20111;-50
2023/04/09 02:31:13;;;;;;;55.00;28.30;;;5.90;99.90;;;;;;5090568;28;20107;-51
2023/04/09 02:33:39;;;;;;;54.87;27.43;;;5.90;99.90;;;;;;5088838;28;20028;-52
2023/04/09 02:36:05;;;;;;;55.60;28.20;;;5.80;99.90;;;;;;5090290;28;20484;-50
2023/04/09 02:38:31;;;;;;;57.90;28.67;;;5.80;99.90;;;;;;5090030;28;20032;-53
2023/04/09 02:40:57;;;;;;;58.83;29.00;;;5.80;99.90;;;;;;5090383;28;20045;-53
2023/04/09 02:43:23;;;;;;;58.97;28.57;;;5.80;99.90;;;;;;5090189;28;20028;-55
2023/04/09 02:45:49;;;;;;;58.53;28.50;;;5.70;99.90;;;;;;5090388;28;20063;-55
2023/04/09 02:48:15;;;;;;;59.83;28.60;;;5.70;99.90;;;;;;5088690;28;20030;-51
2023/04/09 02:50:43;;;;;;;55.73;27.87;;;5.70;99.90;;;;;;5088859;28;20115;-50
2023/04/09 02:53:08;;;;;;;60.10;28.43;;;5.70;99.90;;;;;;5088948;28;20111;-53
2023/04/09 02:55:34;;;;;;;57.53;29.03;;;5.60;99.90;;;;;;5088748;28;20103;-51
2023/04/09 02:58:00;;;;;;;63.40;29.80;;;5.60;99.90;;;;;;5088745;28;20434;-49
2023/04/09 03:00:26;;;;;;;60.53;28.87;;;5.60;99.90;;;;;;5090107;28;20107;-50
2023/04/09 03:02:52;;;;;;;53.27;26.80;;;5.50;99.90;;;;;;5088843;28;20031;-53
2023/04/09 03:05:18;;;;;;;59.97;29.27;;;5.50;99.90;;;;;;5088541;28;20028;-53
2023/04/09 03:07:44;;;;;;;63.53;29.23;;;5.50;99.90;;;;;;5089936;28;20152;-56
2023/04/09 03:10:09;;;;;;;62.70;29.83;;;5.50;99.90;;;;;;5088820;28;20035;-54
2023/04/09 03:12:35;;;;;;;55.63;27.63;;;5.50;99.90;;;;;;5090036;28;20035;-53
2023/04/09 03:15:01;;;;;;;61.70;29.37;;;5.40;99.90;;;;;;5089927;28;20020;-54
2023/04/09 03:17:28;;;;;;;59.60;28.63;;;5.40;99.90;;;;;;5089635;28;20042;-55
2023/04/09 03:19:53;;;;;;;60.47;29.60;;;5.40;99.90;;;;;;5092370;28;20028;-52
2023/04/09 03:22:20;;;;;;;59.80;29.00;;;5.40;99.90;;;;;;5093510;28;20031;-56
2023/04/09 03:24:50;;;;;;;60.80;28.87;;;5.30;99.90;;;;;;5092172;28;20551;-53
2023/04/09 03:27:17;;;;;;;62.73;29.83;;;5.30;99.90;;;;;;5092021;28;20030;-55
2023/04/09 03:29:43;;;;;;;64.20;30.47;;;5.30;99.90;;;;;;5092347;28;20032;-53
2023/04/09 03:32:09;;;;;;;61.10;30.07;;;5.20;99.90;;;;;;5092249;28;20290;-55
2023/04/09 03:34:35;;;;;;;64.13;31.10;;;5.20;99.90;;;;;;5091873;28;20035;-54
2023/04/09 03:37:01;;;;;;;64.53;30.73;;;5.20;99.90;;;;;;5091891;28;20092;-55
2023/04/09 03:39:29;;;;;;;65.90;32.00;;;5.10;99.90;;;;;;5092240;28;20035;-52
2023/04/09 03:41:57;;;;;;;64.70;31.27;;;5.10;99.90;;;;;;5092043;28;20027;-53
2023/04/09 03:44:26;;;;;;;67.03;33.23;;;5.10;99.90;;;;;;5091976;28;20036;-53
2023/04/09 03:47:18;;;;;;;64.60;30.37;;;5.10;99.90;;;;;;5091342;28;20063;-55
2023/04/09 03:49:44;;;;;;;68.67;31.57;;;5.10;99.90;;;;;;5092129;28;20052;-53
2023/04/09 03:52:23;;;;;;;64.60;32.25;;;5.10;99.90;;;;;;5092167;28;20054;-54
2023/04/09 03:55:08;;;;;;;62.87;31.10;;;5.00;99.90;;;;;;5091927;28;20032;-52
2023/04/09 03:57:34;;;;;;;65.10;32.60;;;5.00;99.90;;;;;;5091780;28;20031;-55
2023/04/09 04:00:00;;;;;;;69.97;33.93;;;4.90;99.90;;;;;;5091878;28;20118;-53
2023/04/09 04:02:32;;;;;;;64.50;31.77;;;4.90;99.90;;;;;;5091725;28;20511;-53
2023/04/09 04:05:02;;;;;;;65.83;33.17;;;4.80;99.90;;;;;;5091601;28;20504;-52
2023/04/09 04:07:33;;;;;;;65.50;32.17;;;4.80;99.90;;;;;;5091497;28;20026;-55
2023/04/09 04:10:06;;;;;;;62.90;33.20;;;4.80;99.90;;;;;;5091669;28;20404;-53
2023/04/09 04:12:32;;;;;;;71.53;33.67;;;4.80;99.90;;;;;;5091599;28;20031;-52
2023/04/09 04:15:10;;;;;;;75.87;35.17;;;4.80;99.90;;;;;;5091394;28;20055;-50
2023/04/09 04:17:49;;;;;;;76.40;35.30;;;4.80;99.90;;;;;;5091230;28;20089;-53
2023/04/09 04:20:39;;;;;;;68.23;32.50;;;4.80;99.90;;;;;;5092510;28;20055;-54
2023/04/09 04:23:11;;;;;;;79.33;36.10;;;4.70;99.90;;;;;;5091513;28;20024;-51
2023/04/09 04:25:45;;;;;;;78.23;36.20;;;4.70;99.90;;;;;;5091144;28;20031;-54
2023/04/09 04:28:15;;;;;;;80.33;36.07;;;4.70;99.90;;;;;;5090898;28;20488;-52
2023/04/09 04:30:41;;;;;;;86.73;37.77;;;4.70;99.90;;;;;;5089720;28;20020;-50
2023/04/09 04:33:08;;;;;;;72.50;35.17;;;4.60;99.90;;;;;;5091214;28;20024;-51
2023/04/09 04:35:43;;;;;;;76.83;36.43;;;4.60;99.90;;;;;;5091076;28;20198;-53
2023/04/09 04:38:23;;;;;;;80.53;36.03;;;4.60;99.90;;;;;;5090709;28;20477;-52
2023/04/09 04:40:49;;;;;;;79.87;38.17;;;4.60;99.90;;;;;;5090748;28;22461;-52
2023/04/09 04:43:16;;;;;;;76.47;34.50;;;4.60;99.90;;;;;;5090635;28;20028;-54
2023/04/09 04:45:42;;;;;;;75.77;35.37;;;4.60;99.90;;;;;;5090575;28;20032;-52
2023/04/09 04:48:10;;;;;;;73.00;34.63;;;4.60;99.90;;;;;;5090402;28;20031;-54
2023/04/09 04:50:36;;;;;;;75.03;35.17;;;4.50;99.90;;;;;;5090815;28;20039;-54
2023/04/09 04:53:05;;;;;;;74.63;34.58;;;4.50;99.90;;;;;;5090681;28;20035;-54
2023/04/09 04:55:40;;;;;;;74.70;36.03;;;4.50;99.90;;;;;;5091662;28;20024;-53
2023/04/09 04:58:09;;;;;;;;;;;4.50;99.90;;;;;;5090902;28;20096;-52
2023/04/09 05:00:43;;;;;;;72.97;33.17;;;4.50;99.90;;;;;;5090405;28;19998;-55
2023/04/09 05:03:09;;;;;;;76.83;34.50;;;4.50;99.90;;;;;;5090352;28;20048;-55
2023/04/09 05:05:52;;;;;;;70.37;34.10;;;4.50;99.90;;;;;;5090398;28;20032;-53
2023/04/09 05:08:19;;;;;;;73.50;33.10;;;4.50;99.90;;;;;;5090181;28;20476;-55
2023/04/09 05:10:48;;;;;;;71.28;34.58;;;4.50;99.90;;;;;;5091760;28;20034;-54
2023/04/09 05:13:14;;;;;;;69.77;33.40;;;4.50;99.90;;;;;;5090216;28;20107;-53
2023/04/09 05:15:40;;;;;;;73.13;34.00;;;4.50;99.90;;;;;;5090012;28;20032;-53
2023/04/09 05:18:07;;;;;;;72.60;33.87;;;4.50;99.90;;;;;;5091477;28;20032;-54
2023/04/09 05:20:34;;;;;;;73.10;33.93;;;4.50;99.90;;;;;;5091189;28;20484;-55
2023/04/09 05:23:09;;;;;;;74.00;33.67;;;4.50;99.90;;;;;;5090022;28;20028;-54
2023/04/09 05:25:39;;;;;;;70.87;33.83;;;4.50;99.90;;;;;;5089735;28;20062;-54
2023/04/09 05:28:10;;;;;;;67.75;32.45;;;4.60;99.90;;;;;;5089652;28;20020;-53
2023/04/09 05:30:36;;;;;;;69.97;32.40;;;4.60;99.90;;;;;;5089738;28;20085;-53
2023/04/09 05:33:03;;;;;;;71.30;32.50;;;4.60;99.90;;;;;;5089748;28;20038;-55
2023/04/09 05:35:30;;;;;;;68.83;32.03;;;4.70;99.90;;;;;;5089525;28;20039;-53
2023/04/09 05:37:56;;;;;;;64.93;31.90;;;4.70;99.90;;;;;;5089494;28;20020;-54
2023/04/09 05:40:22;;;;;;;72.33;34.07;;;4.70;99.90;;;;;;5089726;28;20263;-54
2023/04/09 05:42:48;;;;;;;63.20;31.97;;;4.80;99.90;;;;;;5089254;28;20042;-53
2023/04/09 05:45:27;;;;;;;65.87;31.77;;;4.80;99.90;;;;;;5089375;28;20066;-55
2023/04/09 05:47:53;;;;;;;63.97;31.40;;;4.80;99.90;;;;;;5089165;28;20507;-55
2023/04/09 05:50:21;;;;;;;64.17;30.53;;;4.80;99.90;;;;;;5089432;28;20028;-56
2023/04/09 05:52:50;;;;;;;57.55;29.60;;;5.20;99.90;;;;;;5089567;28;20502;-56
2023/04/09 05:55:16;;;;;;;53.10;28.43;;;5.50;99.90;;;;;;5089314;28;20036;-56
2023/04/09 05:57:47;;;;;;;50.80;27.40;;;5.80;99.90;;;;;;5089200;28;20024;-52
2023/04/09 06:00:14;;;;;;;48.53;26.97;;;6.00;99.90;;;;;;5089264;28;20032;-53
2023/04/09 06:02:42;;;;;;;53.70;28.55;;;6.10;99.90;;;;;;5090671;28;20067;-55
2023/04/09 06:05:08;;;;;;;53.57;27.63;;;6.10;99.90;;;;;;5089180;28;20535;-55
2023/04/09 06:07:34;;;;;;;54.60;27.80;;;6.20;99.90;;;;;;5090403;28;20434;-54
2023/04/09 06:10:01;;;;;;;49.30;26.33;;;6.30;99.90;;;;;;5089476;28;20043;-53
2023/04/09 06:12:26;;;;;;;48.30;25.43;;;6.50;99.90;;;;;;5090671;28;20073;-54
2023/04/09 06:14:52;;;;;;;52.93;26.93;;;6.80;99.90;;;;;;5088919;28;20040;-54
2023/04/09 06:17:18;;;;;;;49.17;25.60;;;6.80;99.90;;;;;;5090331;28;20067;-53
2023/04/09 06:19:43;;;;;;;50.53;27.07;;;6.70;99.90;;;;;;5090470;28;20021;-54
2023/04/09 06:22:09;;;;;;;47.43;25.77;;;6.70;99.90;;;;;;5090507;28;20024;-53
2023/04/09 06:24:35;;;;;;;49.57;25.23;;;6.60;99.90;;;;;;5090414;28;20394;-54
2023/04/09 06:27:01;;;;;;;47.07;25.83;;;6.80;99.90;;;;;;5090293;28;20024;-55
2023/04/09 06:29:27;;;;;;;43.50;24.50;;;7.10;99.90;;;;;;5090227;28;20031;-55
2023/04/09 06:31:53;;;;;;;48.00;25.67;;;7.40;99.90;;;;;;5090378;28;20511;-55
2023/04/09 06:34:18;;;;;;;44.20;25.17;;;7.50;99.90;;;;;;5090318;28;20489;-56
2023/04/09 06:36:44;;;;;;;45.87;25.27;;;7.40;99.90;;;;;;5090136;28;20039;-55
2023/04/09 06:39:10;;;;;;;42.47;24.57;;;7.40;99.90;;;;;;5090380;28;20032;-55
2023/04/09 06:41:36;;;;;;;41.33;24.20;;;7.50;99.90;;;;;;5090283;28;20528;-55
2023/04/09 06:44:10;;;;;;;43.10;24.77;;;7.90;99.90;;;;;;5088773;28;20529;-55
2023/04/09 06:46:36;;;;;;;41.03;23.17;;;8.40;99.90;;;;;;5089942;28;20031;-56
2023/04/09 06:49:02;;;;;;;40.00;23.67;;;8.60;99.90;;;;;;5090349;28;20082;-54
2023/04/09 06:51:27;;;;;;;36.53;21.90;;;8.80;99.90;;;;;;5090423;28;20081;-53
2023/04/09 06:53:53;;;;;;;36.93;22.43;;;8.80;99.90;;;;;;5090883;28;20498;-53
2023/04/09 06:56:19;;;;;;;39.67;22.47;;;8.90;99.90;;;;;;5093924;28;20031;-55
2023/04/09 06:58:44;;;;;;;38.63;22.70;;;9.10;99.90;;;;;;5093879;28;20039;-54
2023/04/09 07:01:11;;;;;;;35.60;22.93;;;9.10;99.90;;;;;;5093819;28;20112;-54
2023/04/09 07:03:37;;;;;;;36.00;21.20;;;9.30;99.90;;;;;;5093674;28;20039;-54
2023/04/09 07:06:03;;;;;;;35.67;21.93;;;9.50;99.90;;;;;;5093871;28;20032;-54
2023/04/09 07:08:29;;;;;;;35.47;21.63;;;9.60;99.90;;;;;;5093587;28;20016;-56
2023/04/09 07:10:55;;;;;;;35.47;21.53;;;9.70;99.90;;;;;;5093812;28;20416;-54
2023/04/09 07:13:21;;;;;;;35.53;21.50;;;9.90;99.90;;;;;;5093322;28;20038;-56
2023/04/09 07:15:47;;;;;;;32.87;20.33;;;10.00;99.90;;;;;;5093563;28;20031;-55
2023/04/09 07:18:12;;;;;;;34.20;19.23;;;10.10;99.90;;;;;;5104632;22;20419;-50
2023/04/09 07:20:38;;;;;;;30.93;20.10;;;10.40;99.90;;;;;;5093468;28;20021;-51
2023/04/09 07:23:04;;;;;;;29.80;18.73;;;10.80;99.90;;;;;;5093664;28;20081;-51
2023/04/09 07:25:30;;;;;;;29.90;18.27;;;10.80;99.90;;;;;;5093253;28;20449;-50
2023/04/09 07:27:56;;;;;;;34.60;21.20;;;11.10;99.90;;;;;;5093390;28;20024;-51
2023/04/09 07:30:22;;;;;;;25.95;16.77;;;11.20;99.90;;;;;;5093681;28;20028;-53
2023/04/09 07:32:48;;;;;;;25.77;16.73;;;11.70;99.90;;;;;;5093419;28;20055;-49
2023/04/09 07:35:14;;;;;;;23.33;15.82;;;12.00;99.90;;;;;;5093543;28;20635;-50
2023/04/09 07:37:39;;;;;;;27.08;17.33;;;12.20;99.90;;;;;;5093103;28;20040;-52
2023/04/09 07:40:07;;;;;;;20.00;13.52;;;12.90;99.90;;;;;;5093167;28;20548;-51
2023/04/09 07:42:32;;;;;;;24.27;12.50;;;13.10;99.90;;;;;;5093213;28;20028;-50
2023/04/09 07:44:59;;;;;;;15.65;10.75;;;13.40;99.90;;;;;;5093108;28;20107;-50
2023/04/09 07:47:25;;;;;;;17.83;11.55;;;13.70;99.90;;;;;;5092930;28;20397;-51
2023/04/09 07:49:51;;;;;;;16.05;11.00;;;14.00;99.20;;;;;;5093069;28;20484;-48
2023/04/09 07:52:18;;;;;;;16.42;11.02;;;14.00;99.70;;;;;;5093518;28;20067;-52
2023/04/09 07:54:44;;;;;;;14.00;8.50;;;14.30;98.30;;;;;;5092850;28;20047;-50
2023/04/09 07:57:09;;;;;;;13.90;9.18;;;14.50;96.10;;;;;;5092570;28;20028;-52
2023/04/09 07:59:35;;;;;;;15.63;10.30;;;14.40;96.10;;;;;;5092954;28;20036;-51
2023/04/09 08:02:01;;;;;;;13.63;9.32;;;14.50;95.50;;;;;;5092825;28;20127;-51
2023/04/09 08:04:27;;;;;;;14.77;10.18;;;14.60;95.50;;;;;;5092543;28;20028;-52
2023/04/09 08:06:52;;;;;;;14.52;9.93;;;14.70;96.30;;;;;;5092698;28;20028;-52
2023/04/09 08:09:20;;;;;;;14.98;9.85;;;14.90;96.20;;;;;;5093177;28;20039;-47
2023/04/09 08:11:46;;;;;;;15.15;10.10;;;15.30;94.40;;;;;;5092920;28;20027;-51
2023/04/09 08:14:13;;;;;;;14.95;9.57;;;15.30;94.80;;;;;;5092395;28;20052;-51
2023/04/09 08:16:44;;;;;;;13.25;8.52;;;15.40;93.90;;;;;;5092701;28;20404;-51
2023/04/09 08:19:10;;;;;;;10.52;7.80;;;15.60;93.50;;;;;;5092444;28;20031;-53
2023/04/09 08:21:37;;;;;;;10.68;7.38;;;15.70;94.20;;;;;;5092480;28;20071;-47
2023/04/09 08:24:04;;;;;;;11.30;7.63;;;15.80;90.60;;;;;;5092191;28;20028;-49
2023/04/09 08:26:30;;;;;;;10.80;6.85;;;15.40;91.60;;;;;;5092212;28;20028;-52
2023/04/09 08:28:56;;;;;;;11.90;7.63;;;15.00;91.60;;;;;;5092202;28;20028;-49
2023/04/09 08:31:22;;;;;;;11.50;7.50;;;14.50;93.10;;;;;;5092392;28;20032;-51
2023/04/09 08:33:48;;;;;;;11.32;7.53;;;14.40;92.50;;;;;;5092043;28;20024;-51
2023/04/09 08:36:14;;;;;;;12.98;7.22;;;14.30;92.00;;;;;;5092350;28;20032;-51
2023/04/09 08:38:40;;;;;;;11.45;7.40;;;14.10;93.40;;;;;;5091827;28;20039;-51
2023/04/09 08:41:06;;;;;;;11.68;7.20;;;14.20;94.70;;;;;;5092082;28;20067;-50
2023/04/09 08:43:35;;;;;;;11.77;6.75;;;14.40;92.50;;;;;;5092063;28;20028;-53
2023/04/09 08:46:02;;;;;;;10.48;6.55;;;14.40;93.10;;;;;;5092140;28;20020;-52
2023/04/09 08:48:28;;;;;;;10.90;6.50;;;14.50;92.10;;;;;;5091842;28;20278;-51
2023/04/09 08:50:54;;;;;;;9.10;5.60;;;14.70;92.30;;;;;;5091769;28;20069;-48
2023/04/09 08:53:21;;;;;;;9.55;6.18;;;14.80;91.30;;;;;;5091652;28;20080;-52
2023/04/09 08:55:47;;;;;;;8.65;5.78;;;14.60;91.70;;;;;;5091880;28;20035;-52
2023/04/09 08:58:13;;;;;;;9.20;5.75;;;14.50;91.50;;;;;;5091482;28;20020;-48
2023/04/09 09:00:39;;;;;;;10.32;5.88;;;14.60;90.00;;;;;;5091680;28;20134;-46
2023/04/09 09:03:08;;;;;;;8.43;5.32;;;14.50;90.70;;;;;;5091869;28;20472;-47
2023/04/09 09:05:41;;;;;;;9.90;6.55;;;14.50;90.10;;;;;;5091372;28;20036;-47
2023/04/09 09:08:09;;;;;;;11.63;6.28;;;14.50;88.20;;;;;;5091547;28;20499;-51
2023/04/09 09:10:45;;;;;;;12.02;6.47;;;14.50;91.60;;;;;;5091504;28;20067;-51
2023/04/09 09:13:27;;;;;;;9.02;5.80;;;14.50;89.70;;;;;;5091601;28;20489;-51
2023/04/09 09:16:10;;;;;;;9.35;6.50;;;14.50;89.80;;;;;;5091311;28;20024;-47
2023/04/09 09:18:41;;;;;;;9.57;5.97;;;14.60;89.40;;;;;;5090975;28;20231;-50
2023/04/09 09:21:10;;;;;;;7.47;5.07;;;14.60;87.90;;;;;;5091414;28;20024;-47
2023/04/09 09:23:36;;;;;;;10.38;6.18;;;14.70;88.20;;;;;;5091162;28;20072;-48
2023/04/09 09:26:15;;;;;;;9.27;5.80;;;14.80;87.90;;;;;;5091286;28;20055;-48
2023/04/09 09:28:41;;;;;;;9.57;6.10;;;14.70;88.80;;;;;;5090860;28;20035;-48
2023/04/09 09:31:08;;;;;;;6.95;4.65;;;14.80;87.10;;;;;;5091115;28;20020;-52
2023/04/09 09:33:35;;;;;;;8.70;5.07;;;14.90;86.10;;;;;;5090885;28;20024;-49
2023/04/09 09:36:02;;;;;;;8.02;5.47;;;15.10;83.50;;;;;;5091107;28;20116;-50
2023/04/09 09:38:29;;;;;;;8.18;5.18;;;15.00;84.10;;;;;;5090754;28;20516;-52
2023/04/09 09:40:54;;;;;;;10.40;7.15;;;14.90;84.50;;;;;;5090691;28;20032;-46
2023/04/09 09:43:20;;;;;;;8.15;5.53;;;15.00;82.80;;;;;;5090633;28;20032;-47
2023/04/09 09:45:47;;;;;;;7.93;5.13;;;15.50;82.60;;;;;;5090930;28;20032;-47
2023/04/09 09:48:14;;;;;;;10.90;6.60;;;15.70;80.00;;;;;;5090534;28;20030;-48
2023/04/09 09:50:41;;;;;;;8.90;5.13;;;16.00;80.10;;;;;;5090835;28;20028;-48
2023/04/09 09:53:09;;;;;;;8.23;5.30;;;16.10;78.30;;;;;;5091130;28;20032;-50
2023/04/09 09:55:42;;;;;;;7.90;5.30;;;16.20;80.00;;;;;;5090438;28;20028;-51
2023/04/09 09:58:15;;;;;;;8.20;5.10;;;16.20;78.80;;;;;;5090361;28;20032;-51
2023/04/09 10:00:43;;;;;;;9.65;5.90;;;16.00;77.20;;;;;;5090597;28;20023;-52
2023/04/09 10:03:22;;;;;;;9.35;6.22;;;15.40;79.70;;;;;;5090667;28;20157;-53
2023/04/09 10:05:49;;;;;;;8.23;5.45;;;15.10;83.20;;;;;;5090743;28;20459;-53
2023/04/09 10:08:15;;;;;;;9.80;6.15;;;15.70;83.40;;;;;;5090316;28;20058;-50
2023/04/09 10:10:41;;;;;;;8.07;5.05;;;15.90;81.70;;;;;;5090635;28;20443;-50
2023/04/09 10:13:20;;;;;;;7.80;5.43;;;16.40;79.50;;;;;;5090833;28;20456;-50
2023/04/09 10:15:46;;;;;;;8.00;5.63;;;16.90;78.30;;;;;;5090604;28;20028;-48
2023/04/09 10:18:14;;;;;;;8.63;5.32;;;17.10;77.60;;;;;;5090142;28;20032;-47
2023/04/09 10:20:54;;;;;;;8.18;5.93;;;17.50;72.50;;;;;;5090382;28;20111;-50
2023/04/09 10:23:31;;;;;;;8.27;5.57;;;17.60;74.50;;;;;;5090353;28;20576;-53
2023/04/09 10:25:57;;;;;;;7.90;5.20;;;18.00;74.50;;;;;;5090612;28;20203;-52
2023/04/09 10:28:23;;;;;;;8.35;5.32;;;18.60;68.80;;;;;;5090480;28;20021;-51
2023/04/09 10:30:49;;;;;;;7.10;5.20;;;19.30;67.70;;;;;;5094711;28;20387;-52
2023/04/09 10:33:20;;;;;;;7.20;5.10;;;19.20;68.00;;;;;;5094933;28;20114;-47
2023/04/09 10:35:48;;;;;;;6.60;5.07;;;19.60;64.80;;;;;;5094775;28;20016;-49
2023/04/09 10:38:14;;;;;;;7.97;5.57;;;20.20;63.10;;;;;;5094408;28;20034;-52
2023/04/09 10:41:14;;;;;;;6.88;5.00;;;20.60;63.90;;;;;;5094418;28;20464;-49
2023/04/09 10:43:40;;;;;;;7.65;5.53;;;20.40;62.30;;;;;;5094036;28;20024;-52
2023/04/09 10:46:24;;;;;;;6.60;5.13;;;20.30;61.00;;;;;;5094306;28;20028;-48
2023/04/09 10:49:08;;;;;;;7.30;5.50;;;20.20;61.50;;;;;;5094104;28;20028;-48
2023/04/09 10:51:38;;;;;;;7.80;5.43;;;20.60;59.50;;;;;;5094266;28;20392;-48
2023/04/09 10:54:32;;;;;;;7.10;5.45;;;20.80;58.50;;;;;;5093673;28;20036;-49
2023/04/09 10:57:10;;;;;;;6.68;5.07;;;20.20;59.00;;;;;;5093884;28;20079;-51
2023/04/09 10:59:41;;;;;;;6.95;4.82;;;19.10;61.30;;;;;;5093932;28;20072;-50
2023/04/09 11:02:13;;;;;;;7.05;4.95;;;18.40;63.30;;;;;;5094021;28;20031;-49
2023/04/09 11:05:00;;;;;;;6.80;5.00;;;18.10;65.30;;;;;;5093821;28;20028;-49
2023/04/09 11:07:28;;;;;;;6.80;4.93;;;17.90;64.70;;;;;;5094063;28;20028;-48
2023/04/09 11:09:54;;;;;;;6.68;4.90;;;17.80;65.30;;;;;;5094066;28;20024;-51
2023/04/09 11:12:20;;;;;;;6.50;4.82;;;18.00;66.40;;;;;;5093906;28;20493;-50
2023/04/09 11:14:45;;;;;;;7.55;5.28;;;18.20;64.90;;;;;;5093520;28;20063;-50
2023/04/09 11:17:12;;;;;;;6.70;5.15;;;17.80;64.50;;;;;;5093331;28;20034;-49
2023/04/09 11:19:38;;;;;;;7.38;4.82;;;17.20;64.40;;;;;;5093677;28;20037;-51
2023/04/09 11:22:05;;;;;;;6.57;4.95;;;16.80;66.70;;;;;;5093558;28;20087;-50
2023/04/09 11:24:45;;;;;;;6.93;5.07;;;17.00;68.80;;;;;;5093478;28;20020;-49
2023/04/09 11:27:14;;;;;;;7.07;4.95;;;17.80;67.90;;;;;;5093375;28;20028;-48
2023/04/09 11:29:41;;;;;;;6.85;4.63;;;17.70;64.60;;;;;;5093486;28;20039;-50
2023/04/09 11:32:06;;;;;;;7.15;4.70;;;17.50;68.00;;;;;;5093436;28;20036;-47
2023/04/09 11:34:32;;;;;;;7.10;5.22;;;17.40;67.80;;;;;;5093354;28;20028;-49
2023/04/09 11:37:01;;;;;;;6.35;4.93;;;17.40;66.70;;;;;;5093080;28;20028;-49
2023/04/09 11:39:27;;;;;;;6.97;4.75;;;18.10;65.40;;;;;;5092703;28;20388;-51
2023/04/09 11:41:52;;;;;;;7.45;4.80;;;18.00;62.50;;;;;;5093013;28;20028;-50
2023/04/09 11:44:19;;;;;;;8.55;5.40;;;17.60;64.00;;;;;;5093070;28;20043;-49
2023/04/09 11:46:47;;;;;;;7.45;4.90;;;17.60;65.10;;;;;;5092972;28;20028;-48
2023/04/09 11:49:13;;;;;;;7.50;5.20;;;17.60;64.40;;;;;;5093196;28;20031;-49
2023/04/09 11:51:39;;;;;;;7.15;4.80;;;17.30;67.00;;;;;;5093298;28;20031;-49
2023/04/09 11:54:06;;;;;;;8.57;5.50;;;17.10;66.70;;;;;;5092941;28;20032;-47
2023/04/09 11:56:35;;;;;;;9.45;5.45;;;17.20;67.20;;;;;;5093279;28;20430;-47
2023/04/09 11:59:01;;;;;;;8.00;5.00;;;17.20;66.00;;;;;;5092937;28;20489;-49
2023/04/09 12:01:31;;;;;;;10.05;5.63;;;17.30;65.60;;;;;;5092924;28;20042;-48
2023/04/09 12:03:57;;;;;;;7.03;5.25;;;17.50;64.60;;;;;;5092803;28;20028;-50
2023/04/09 12:06:25;;;;;;;8.95;5.13;;;17.50;65.00;;;;;;5092653;28;20036;-49
2023/04/09 12:08:58;;;;;;;15.38;10.75;;;17.60;67.30;;;;;;5092517;28;20034;-50
2023/04/09 12:11:28;;;;;;;10.35;6.47;;;17.80;66.50;;;;;;5093026;28;20036;-48
2023/04/09 12:14:04;;;;;;;8.15;5.97;;;18.00;66.00;;;;;;5092521;28;20077;-53
2023/04/09 12:16:31;;;;;;;8.30;5.72;;;18.20;65.30;;;;;;5092615;28;20036;-48
2023/04/09 12:19:05;;;;;;;7.28;5.40;;;17.80;66.00;;;;;;5092352;28;20036;-48
2023/04/09 12:21:51;;;;;;;6.90;5.10;;;17.60;69.10;;;;;;5092436;28;20452;-49
2023/04/09 12:24:20;;;;;;;8.63;5.78;;;17.40;67.00;;;;;;5092500;28;20103;-48
2023/04/09 12:26:46;;;;;;;7.70;4.80;;;17.20;70.20;;;;;;5092250;28;20472;-47
2023/04/09 12:29:14;;;;;;;8.20;5.63;;;17.10;66.80;;;;;;5092501;28;20073;-47
2023/04/09 12:31:41;;;;;;;7.63;5.38;;;17.00;67.10;;;;;;5092479;28;20032;-48
2023/04/09 12:34:07;;;;;;;6.88;5.35;;;16.90;67.10;;;;;;5092191;28;20399;-48
2023/04/09 12:36:33;;;;;;;7.93;5.57;;;16.80;66.90;;;;;;5092184;28;20028;-46
2023/04/09 12:38:58;;;;;;;7.68;5.10;;;16.70;68.00;;;;;;5092272;28;20443;-47
2023/04/09 12:41:24;;;;;;;6.50;4.95;;;16.90;71.40;;;;;;5091242;28;20089;-50
2023/04/09 12:43:50;;;;;;;8.20;5.32;;;17.20;67.80;;;;;;5092144;28;20072;-50
2023/04/09 12:46:18;;;;;;;7.25;5.18;;;17.30;67.00;;;;;;5092299;28;20028;-49